createdAt,value
2022-12-09T00:01:25.752Z,-5.57
2022-12-09T00:03:55.542Z,-5.71
2022-12-09T00:06:26.101Z,-5.63
2022-12-09T00:08:54.995Z,-5.51
2022-12-09T00:11:23.737Z,-5.66
2022-12-09T00:13:53.309Z,-5.56
2022-12-09T00:16:22.571Z,-5.34
2022-12-09T00:18:50.782Z,-5.68
2022-12-09T00:21:22.705Z,-5.49
2022-12-09T00:23:52.115Z,-5.42
2022-12-09T00:26:21.702Z,-5.65
2022-12-09T00:28:50.892Z,-5.43
2022-12-09T00:31:20.592Z,-5.35
2022-12-09T00:33:48.254Z,-5.17
2022-12-09T00:36:19.622Z,-5.22
2022-12-09T00:38:47.914Z,-5.09
2022-12-09T00:41:16.512Z,-5.64
2022-12-09T00:43:46.321Z,-5.43
2022-12-09T00:46:15.281Z,-5.61
2022-12-09T00:48:43.794Z,-5.73
2022-12-09T00:51:18.121Z,-5.98
2022-12-09T00:53:47.772Z,-5.87
2022-12-09T00:56:16.053Z,-5.64
2022-12-09T00:58:43.853Z,-6.11
2022-12-09T01:01:11.380Z,-6.17
2022-12-09T01:03:39.692Z,-5.68
2022-12-09T01:06:18.080Z,-5.59
2022-12-09T01:08:47.102Z,-5.56
2022-12-09T01:11:24.849Z,-5.53
2022-12-09T01:13:53.169Z,-5.77
2022-12-09T01:16:22.963Z,-5.71
2022-12-09T01:18:51.759Z,-5.45
2022-12-09T01:21:19.786Z,-5.89
2022-12-09T01:23:47.427Z,-6.15
2022-12-09T01:26:15.034Z,-5.76
2022-12-09T01:28:42.691Z,-5.78
2022-12-09T01:31:18.905Z,-5.74
2022-12-09T01:33:47.488Z,-5.59
2022-12-09T01:36:18.863Z,-5.54
2022-12-09T01:38:48.004Z,-6.02
2022-12-09T01:41:17.597Z,-5.70
2022-12-09T01:43:45.965Z,-5.74
2022-12-09T01:46:15.161Z,-5.72
2022-12-09T01:48:46.753Z,-5.54
2022-12-09T01:51:18.886Z,-5.93
2022-12-09T01:53:50.215Z,-5.89
2022-12-09T01:56:29.353Z,-5.96
2022-12-09T01:59:02.582Z,-5.86
2022-12-09T02:01:30.156Z,-5.91
2022-12-09T02:03:58.299Z,-5.91
2022-12-09T02:06:26.352Z,-5.71
2022-12-09T02:08:55.303Z,-5.62
2022-12-09T02:11:51.531Z,-5.79
2022-12-09T02:14:28.684Z,-5.87
2022-12-09T02:17:30.716Z,-6.17
2022-12-09T02:20:21.603Z,-6.75
2022-12-09T02:23:05.040Z,-6.28
2022-12-09T02:25:43.980Z,-5.89
2022-12-09T02:31:47.273Z,-5.92
2022-12-09T02:34:16.697Z,-6.44
2022-12-09T02:37:15.679Z,-6.47
2022-12-09T02:39:54.611Z,-6.20
2022-12-09T02:42:28.676Z,-6.06
2022-12-09T02:44:58.515Z,-5.97
2022-12-09T02:47:30.004Z,-6.23
2022-12-09T02:50:03.127Z,-6.35
2022-12-09T02:52:34.067Z,-6.06
2022-12-09T02:55:05.012Z,-5.82
2022-12-09T02:57:35.169Z,-5.74
2022-12-09T03:00:06.870Z,-5.49
2022-12-09T03:02:38.127Z,-6.08
2022-12-09T03:05:14.137Z,-6.17
2022-12-09T03:08:14.561Z,-6.19
2022-12-09T03:11:02.911Z,-6.01
2022-12-09T03:13:37.737Z,-6.31
2022-12-09T03:16:36.754Z,-6.21
2022-12-09T03:19:06.579Z,-6.14
2022-12-09T03:21:38.375Z,-5.94
2022-12-09T03:24:10.455Z,-5.93
2022-12-09T03:26:39.776Z,-5.61
2022-12-09T03:29:12.140Z,-5.54
2022-12-09T03:31:40.502Z,-5.48
2022-12-09T03:34:11.525Z,-5.62
2022-12-09T03:36:41.616Z,-5.59
2022-12-09T03:39:13.658Z,-5.73
2022-12-09T03:41:47.703Z,-5.69
2022-12-09T03:44:44.309Z,-5.50
2022-12-09T03:47:12.135Z,-5.88
2022-12-09T03:49:41.181Z,-5.68
2022-12-09T03:52:16.835Z,-5.50
2022-12-09T03:54:54.083Z,-5.34
2022-12-09T03:57:23.223Z,-5.61
2022-12-09T03:59:53.348Z,-5.82
2022-12-09T04:02:21.526Z,-5.64
2022-12-09T04:04:49.556Z,-5.62
2022-12-09T04:07:17.708Z,-5.48
2022-12-09T04:09:45.650Z,-5.49
2022-12-09T04:12:13.415Z,-5.74
2022-12-09T04:14:41.117Z,-6.24
2022-12-09T04:17:08.681Z,-6.05
2022-12-09T04:19:36.980Z,-5.85
2022-12-09T04:22:05.525Z,-6.06
2022-12-09T04:24:33.719Z,-5.86
2022-12-09T04:27:01.819Z,-5.69
2022-12-09T04:29:29.699Z,-5.96
2022-12-09T04:31:58.120Z,-6.06
2022-12-09T04:34:31.463Z,-6.14
2022-12-09T04:37:20.293Z,-6.00
2022-12-09T04:39:47.943Z,-5.91
2022-12-09T04:42:15.945Z,-5.55
2022-12-09T04:44:43.894Z,-5.59
2022-12-09T04:47:11.928Z,-5.89
2022-12-09T04:49:40.848Z,-5.87
2022-12-09T04:52:10.657Z,-6.06
2022-12-09T04:54:39.813Z,-6.26
2022-12-09T04:57:09.796Z,-6.02
2022-12-09T04:59:38.252Z,-5.75
2022-12-09T05:02:07.129Z,-6.27
2022-12-09T05:04:35.467Z,-6.22
2022-12-09T05:07:04.224Z,-6.38
2022-12-09T05:09:32.399Z,-6.43
2022-12-09T05:12:00.609Z,-6.04
2022-12-09T05:14:28.724Z,-6.06
2022-12-09T05:16:57.490Z,-6.28
2022-12-09T05:19:25.755Z,-6.24
2022-12-09T05:24:37.111Z,-6.37
2022-12-09T05:27:06.554Z,-6.01
2022-12-09T05:29:35.137Z,-5.84
2022-12-09T05:32:03.682Z,-6.25
2022-12-09T05:34:31.992Z,-6.18
2022-12-09T05:37:00.592Z,-6.18
2022-12-09T05:39:31.025Z,-5.97
2022-12-09T05:41:59.417Z,-6.12
2022-12-09T05:44:27.935Z,-5.97
2022-12-09T05:47:01.522Z,-6.11
2022-12-09T05:49:30.750Z,-6.04
2022-12-09T05:52:06.809Z,-5.95
2022-12-09T05:54:35.527Z,-5.82
2022-12-09T05:57:06.644Z,-6.09
2022-12-09T05:59:36.592Z,-5.75
2022-12-09T06:02:09.777Z,-6.00
2022-12-09T06:04:39.272Z,-6.21
2022-12-09T06:07:07.975Z,-6.44
2022-12-09T06:09:38.535Z,-5.70
2022-12-09T06:12:07.232Z,-5.70
2022-12-09T06:14:35.473Z,-5.99
2022-12-09T06:17:04.788Z,-5.94
2022-12-09T06:19:32.894Z,-5.63
2022-12-09T06:24:46.234Z,-5.29
2022-12-09T06:27:14.614Z,-5.65
2022-12-09T06:29:42.944Z,-5.22
2022-12-09T06:32:11.549Z,-5.26
2022-12-09T06:34:40.029Z,-5.54
2022-12-09T06:37:08.812Z,-5.50
2022-12-09T06:39:38.056Z,-5.65
2022-12-09T06:42:07.371Z,-5.52
2022-12-09T06:44:37.192Z,-5.40
2022-12-09T06:47:06.837Z,-5.00
2022-12-09T06:49:34.729Z,-5.53
2022-12-09T06:52:03.857Z,-5.50
2022-12-09T06:54:32.171Z,-5.54
2022-12-09T06:57:00.690Z,-5.33
2022-12-09T06:59:28.739Z,-5.39
2022-12-09T07:01:56.914Z,-5.15
2022-12-09T07:04:24.915Z,-5.16
2022-12-09T07:06:53.501Z,-4.97
2022-12-09T07:09:22.944Z,-4.66
2022-12-09T07:11:52.149Z,-4.44
2022-12-09T07:14:20.892Z,-4.35
2022-12-09T07:16:49.781Z,-4.23
2022-12-09T07:19:20.148Z,-3.79
2022-12-09T07:21:50.205Z,-3.93
2022-12-09T07:24:20.467Z,-3.83
2022-12-09T07:26:49.262Z,-4.00
2022-12-09T07:29:21.920Z,-4.03
2022-12-09T07:31:51.504Z,-4.21
2022-12-09T07:34:20.193Z,-4.11
2022-12-09T07:36:48.860Z,-3.76
2022-12-09T07:39:22.432Z,-3.35
2022-12-09T07:41:59.692Z,-3.47
2022-12-09T07:44:51.006Z,-3.37
2022-12-09T07:47:19.783Z,-3.38
2022-12-09T07:49:47.806Z,-3.16
2022-12-09T07:52:16.915Z,-3.11
2022-12-09T07:54:45.861Z,-2.77
2022-12-09T07:57:15.459Z,-2.92
2022-12-09T07:59:44.076Z,-2.84
2022-12-09T08:02:11.913Z,-3.02
2022-12-09T08:04:40.451Z,-3.17
2022-12-09T08:09:50.579Z,-3.24
2022-12-09T08:12:18.976Z,-2.89
2022-12-09T08:14:47.611Z,-3.00
2022-12-09T08:17:15.726Z,-2.57
2022-12-09T08:19:47.541Z,-2.33
2022-12-09T08:22:16.651Z,-2.18
2022-12-09T08:24:44.823Z,-2.18
2022-12-09T08:27:18.530Z,-2.11
2022-12-09T08:29:50.969Z,-1.93
2022-12-09T08:32:23.250Z,-1.78
2022-12-09T08:37:54.008Z,-1.49
2022-12-09T08:40:24.656Z,-1.53
2022-12-09T08:42:53.072Z,-1.86
2022-12-09T08:45:21.317Z,-1.54
2022-12-09T08:47:52.485Z,-1.50
2022-12-09T08:50:20.685Z,-1.71
2022-12-09T08:52:48.603Z,-1.68
2022-12-09T08:55:17.711Z,-1.78
2022-12-09T08:57:47.073Z,-1.93
2022-12-09T09:00:16.228Z,-1.67
2022-12-09T09:02:44.751Z,-1.43
2022-12-09T09:05:13.376Z,-1.49
2022-12-09T09:07:42.170Z,-1.27
2022-12-09T09:10:11.750Z,-1.20
2022-12-09T09:12:44.020Z,-1.42
2022-12-09T09:15:14.296Z,-1.34
2022-12-09T09:17:49.883Z,-1.33
2022-12-09T09:20:43.699Z,-1.09
2022-12-09T09:23:17.111Z,-0.93
2022-12-09T09:25:46.432Z,-0.83
2022-12-09T09:28:25.986Z,-0.73
2022-12-09T09:31:02.503Z,-1.07
2022-12-09T09:33:30.994Z,-0.78
2022-12-09T09:36:05.545Z,-1.06
2022-12-09T09:38:39.556Z,-1.03
2022-12-09T09:41:26.455Z,-0.71
2022-12-09T09:43:56.342Z,-0.87
2022-12-09T09:47:16.069Z,-0.54
2022-12-09T09:49:53.739Z,-0.12
2022-12-09T09:52:28.945Z,-0.22
2022-12-09T09:54:57.892Z,-0.33
2022-12-09T09:57:47.167Z,-0.44
2022-12-09T10:00:31.778Z,-0.78
2022-12-09T10:03:22.903Z,-0.66
2022-12-09T10:05:56.566Z,-0.32
2022-12-09T10:08:34.720Z,-0.20
2022-12-09T10:11:19.840Z,-0.44
2022-12-09T10:14:07.032Z,-0.56
2022-12-09T10:17:12.518Z,-0.34
2022-12-09T10:19:47.955Z,-0.06
2022-12-09T10:22:35.308Z,0.15
2022-12-09T10:25:29.182Z,-0.07
2022-12-09T10:28:30.767Z,0.04
2022-12-09T10:33:51.486Z,-0.08
2022-12-09T10:36:30.808Z,-0.08
2022-12-09T10:39:03.779Z,0.08
2022-12-09T10:42:10.519Z,-0.13
2022-12-09T10:44:41.284Z,0.04
2022-12-09T10:47:30.096Z,0.42
2022-12-09T10:50:00.649Z,0.20
2022-12-09T10:52:47.395Z,0.30
2022-12-09T10:55:46.212Z,0.25
2022-12-09T10:58:19.749Z,0.12
2022-12-09T11:01:10.468Z,-0.27
2022-12-09T11:03:49.863Z,-0.18
2022-12-09T11:06:30.489Z,0.05
2022-12-09T11:09:02.039Z,-0.03
2022-12-09T11:11:51.171Z,0.10
2022-12-09T11:14:36.724Z,0.34
2022-12-09T11:17:23.426Z,0.28
2022-12-09T11:19:53.297Z,0.38
2022-12-09T11:22:42.641Z,0.34
2022-12-09T11:25:17.427Z,0.73
2022-12-09T11:28:07.347Z,0.68
2022-12-09T11:31:19.939Z,0.58
2022-12-09T11:33:49.179Z,0.78
2022-12-09T11:36:26.358Z,0.39
2022-12-09T11:39:29.683Z,0.70
2022-12-09T11:42:18.906Z,0.65
2022-12-09T11:45:02.191Z,0.42
2022-12-09T11:48:13.623Z,0.29
2022-12-09T11:50:33.414Z,0.40
2022-12-09T11:53:09.355Z,0.72
2022-12-09T11:55:47.032Z,0.47
2022-12-09T11:58:20.719Z,0.39
2022-12-09T12:00:49.929Z,0.46
2022-12-09T12:03:35.214Z,0.74
2022-12-09T12:06:08.930Z,0.35
2022-12-09T12:08:46.755Z,0.32
2022-12-09T12:11:29.433Z,0.20
2022-12-09T12:14:12.743Z,0.23
2022-12-09T12:17:05.652Z,0.22
2022-12-09T12:19:40.204Z,0.24
2022-12-09T12:22:37.972Z,0.17
2022-12-09T12:25:40.724Z,0.14
2022-12-09T12:28:30.962Z,0.26
2022-12-09T12:31:24.051Z,0.07
2022-12-09T12:37:07.278Z,0.01
2022-12-09T12:39:44.342Z,0.10
2022-12-09T12:42:24.343Z,0.16
2022-12-09T12:45:20.802Z,0.32
2022-12-09T12:48:02.554Z,0.18
2022-12-09T12:50:39.780Z,0.28
2022-12-09T12:53:36.685Z,0.14
2022-12-09T12:56:32.046Z,0.00
2022-12-09T12:59:11.987Z,-0.05
2022-12-09T13:01:39.818Z,-0.30
2022-12-09T13:04:15.078Z,-0.31
2022-12-09T13:06:55.338Z,-0.22
2022-12-09T13:09:26.487Z,-0.42
2022-12-09T13:12:48.581Z,-0.36
2022-12-09T13:15:20.555Z,-0.48
2022-12-09T13:17:49.802Z,-0.35
2022-12-09T13:20:23.438Z,-0.40
2022-12-09T13:23:36.030Z,-0.54
2022-12-09T13:26:13.390Z,-0.67
2022-12-09T13:28:55.083Z,-0.66
2022-12-09T13:31:30.108Z,-0.70
2022-12-09T13:34:20.707Z,-0.44
2022-12-09T13:36:49.586Z,-0.73
2022-12-09T13:39:35.705Z,-0.70
2022-12-09T13:42:21.959Z,-0.63
2022-12-09T13:44:49.794Z,-0.87
2022-12-09T13:47:34.529Z,-0.86
2022-12-09T13:50:16.600Z,-1.06
2022-12-09T13:52:48.946Z,-1.17
2022-12-09T13:55:29.364Z,-1.16
2022-12-09T13:58:31.066Z,-1.07
2022-12-09T14:01:04.959Z,-1.03
2022-12-09T14:04:01.575Z,-0.80
2022-12-09T14:06:47.520Z,-0.83
2022-12-09T14:09:40.257Z,-1.10
2022-12-09T14:12:12.078Z,-1.19
2022-12-09T14:14:54.093Z,-1.08
2022-12-09T14:17:29.018Z,-1.01
2022-12-09T14:20:21.581Z,-1.26
2022-12-09T14:23:12.951Z,-1.15
2022-12-09T14:26:00.357Z,-1.23
2022-12-09T14:28:34.142Z,-1.38
2022-12-09T14:31:08.097Z,-1.48
2022-12-09T14:36:28.865Z,-1.35
2022-12-09T14:39:25.332Z,-1.42
2022-12-09T14:42:06.035Z,-1.43
2022-12-09T14:45:03.658Z,-1.50
2022-12-09T14:47:38.693Z,-1.40
2022-12-09T14:50:28.305Z,-1.52
2022-12-09T14:53:03.170Z,-1.40
2022-12-09T14:55:35.227Z,-1.62
2022-12-09T14:58:03.488Z,-1.35
2022-12-09T15:00:31.593Z,-1.41
2022-12-09T15:03:31.390Z,-1.35
2022-12-09T15:06:18.324Z,-1.54
2022-12-09T15:08:53.505Z,-1.63
2022-12-09T15:11:41.156Z,-1.61
2022-12-09T15:14:27.745Z,-1.73
2022-12-09T15:16:57.301Z,-1.70
2022-12-09T15:19:59.054Z,-1.63
2022-12-09T15:22:24.407Z,-1.71
2022-12-09T15:24:53.029Z,-1.84
2022-12-09T15:27:22.100Z,-1.73
2022-12-09T15:29:50.518Z,-1.71
2022-12-09T15:32:27.975Z,-1.74
2022-12-09T15:34:56.080Z,-1.81
2022-12-09T15:37:27.597Z,-1.84
2022-12-09T15:40:03.367Z,-1.92
2022-12-09T15:42:34.479Z,-1.84
2022-12-09T15:45:08.820Z,-1.88
2022-12-09T15:48:02.508Z,-2.05
2022-12-09T15:50:42.261Z,-1.79
2022-12-09T15:53:55.913Z,-1.92
2022-12-09T15:56:23.609Z,-2.03
2022-12-09T15:58:57.169Z,-2.24
2022-12-09T16:01:34.255Z,-2.12
2022-12-09T16:04:03.723Z,-2.25
2022-12-09T16:06:35.194Z,-2.34
2022-12-09T16:09:11.594Z,-2.34
2022-12-09T16:11:45.979Z,-2.12
2022-12-09T16:14:14.157Z,-2.27
2022-12-09T16:16:50.602Z,-2.35
2022-12-09T16:19:42.154Z,-2.39
2022-12-09T16:22:15.695Z,-2.36
2022-12-09T16:25:13.694Z,-2.49
2022-12-09T16:27:43.359Z,-2.33
2022-12-09T16:30:17.585Z,-2.40
2022-12-09T16:33:05.277Z,-2.34
2022-12-09T16:35:45.650Z,-2.37
2022-12-09T16:38:19.455Z,-2.24
2022-12-09T16:40:46.750Z,-2.29
2022-12-09T16:43:25.991Z,-2.15
2022-12-09T16:46:14.722Z,-2.14
2022-12-09T16:48:42.991Z,-2.27
2022-12-09T16:51:13.494Z,-2.45
2022-12-09T16:53:50.369Z,-2.28
2022-12-09T16:56:26.092Z,-2.31
2022-12-09T16:58:54.809Z,-2.55
2022-12-09T17:01:27.716Z,-2.61
2022-12-09T17:04:23.822Z,-2.22
2022-12-09T17:06:51.587Z,-2.24
2022-12-09T17:09:19.447Z,-2.39
2022-12-09T17:11:49.186Z,-2.53
2022-12-09T17:14:18.163Z,-2.55
2022-12-09T17:16:45.503Z,-2.60
2022-12-09T17:19:13.592Z,-2.64
2022-12-09T17:21:41.352Z,-2.49
2022-12-09T17:24:12.026Z,-2.87
2022-12-09T17:26:39.622Z,-2.87
2022-12-09T17:29:07.561Z,-2.63
2022-12-09T17:31:35.281Z,-2.89
2022-12-09T17:34:02.688Z,-2.76
2022-12-09T17:36:30.219Z,-2.59
2022-12-09T17:39:02.708Z,-2.62
2022-12-09T17:41:30.546Z,-2.62
2022-12-09T17:43:59.981Z,-2.71
2022-12-09T17:46:27.593Z,-2.80
2022-12-09T17:48:55.071Z,-2.92
2022-12-09T17:51:22.874Z,-2.88
2022-12-09T17:53:50.960Z,-2.70
2022-12-09T17:56:21.464Z,-2.71
2022-12-09T17:59:00.140Z,-2.92
2022-12-09T18:01:27.758Z,-3.18
2022-12-09T18:04:04.447Z,-2.87
2022-12-09T18:06:36.385Z,-2.87
2022-12-09T18:09:09.164Z,-2.98
2022-12-09T18:11:37.153Z,-3.03
2022-12-09T18:14:05.531Z,-3.05
2022-12-09T18:16:33.451Z,-2.97
2022-12-09T18:19:06.877Z,-3.15
2022-12-09T18:21:35.601Z,-3.07
2022-12-09T18:24:03.485Z,-3.07
2022-12-09T18:26:34.153Z,-3.13
2022-12-09T18:29:05.898Z,-3.01
2022-12-09T18:31:33.487Z,-2.95
2022-12-09T18:34:01.014Z,-3.00
2022-12-09T18:36:29.925Z,-2.86
2022-12-09T18:39:00.640Z,-2.95
2022-12-09T18:41:30.571Z,-3.21
2022-12-09T18:44:01.110Z,-3.43
2022-12-09T18:46:31.972Z,-3.31
2022-12-09T18:49:08.549Z,-3.08
2022-12-09T18:51:36.742Z,-3.25
2022-12-09T18:54:05.479Z,-3.54
2022-12-09T18:59:22.373Z,-3.57
2022-12-09T19:01:50.140Z,-3.28
2022-12-09T19:04:27.007Z,-3.44
2022-12-09T19:06:57.666Z,-3.40
2022-12-09T19:09:30.334Z,-3.58
2022-12-09T19:12:01.067Z,-3.53
2022-12-09T19:14:41.169Z,-3.64
2022-12-09T19:17:08.600Z,-3.63
2022-12-09T19:19:36.129Z,-3.73
2022-12-09T19:22:04.621Z,-3.75
2022-12-09T19:24:34.201Z,-3.64
2022-12-09T19:27:04.001Z,-3.69
2022-12-09T19:29:31.400Z,-3.71
2022-12-09T19:31:58.898Z,-3.52
2022-12-09T19:34:29.132Z,-3.39
2022-12-09T19:36:59.361Z,-3.40
2022-12-09T19:39:32.081Z,-3.49
2022-12-09T19:42:00.072Z,-3.53
2022-12-09T19:44:59.508Z,-3.70
2022-12-09T19:47:16.550Z,-3.56
2022-12-09T19:49:44.744Z,-3.58
2022-12-09T19:52:12.762Z,-3.68
2022-12-09T19:54:40.522Z,-3.32
2022-12-09T19:57:08.217Z,-3.57
2022-12-09T19:59:36.202Z,-3.39
2022-12-09T20:02:03.741Z,-3.43
2022-12-09T20:07:20.224Z,-3.25
2022-12-09T20:09:58.349Z,-3.05
2022-12-09T20:12:25.814Z,-3.12
2022-12-09T20:14:53.136Z,-3.49
2022-12-09T20:17:20.677Z,-3.44
2022-12-09T20:19:48.155Z,-3.34
2022-12-09T20:22:15.725Z,-3.40
2022-12-09T20:24:44.258Z,-3.22
2022-12-09T20:27:11.891Z,-3.36
2022-12-09T20:29:39.250Z,-3.43
2022-12-09T20:32:09.100Z,-3.28
2022-12-09T20:34:36.637Z,-3.41
2022-12-09T20:37:05.176Z,-3.25
2022-12-09T20:39:32.565Z,-3.48
2022-12-09T20:42:00.216Z,-3.42
2022-12-09T20:44:27.619Z,-3.25
2022-12-09T20:46:55.097Z,-3.14
2022-12-09T20:49:26.875Z,-3.24
2022-12-09T20:51:55.508Z,-3.88
2022-12-09T20:54:23.513Z,-3.72
2022-12-09T20:56:51.373Z,-3.72
2022-12-09T20:59:18.912Z,-3.84
2022-12-09T21:01:47.553Z,-3.69
2022-12-09T21:04:15.775Z,-3.51
2022-12-09T21:06:43.373Z,-3.61
2022-12-09T21:09:15.116Z,-3.79
2022-12-09T21:11:42.683Z,-3.95
2022-12-09T21:14:11.484Z,-3.96
2022-12-09T21:16:41.954Z,-3.79
2022-12-09T21:19:13.533Z,-3.98
2022-12-09T21:21:44.030Z,-4.06
2022-12-09T21:24:12.263Z,-4.00
2022-12-09T21:26:40.733Z,-4.06
2022-12-09T21:29:10.050Z,-3.71
2022-12-09T21:31:41.273Z,-3.95
2022-12-09T21:34:10.574Z,-4.14
2022-12-09T21:36:40.802Z,-3.99
2022-12-09T21:39:09.448Z,-3.76
2022-12-09T21:41:37.915Z,-3.77
2022-12-09T21:44:06.629Z,-3.79
2022-12-09T21:46:35.361Z,-4.03
2022-12-09T21:49:04.705Z,-4.29
2022-12-09T21:51:34.080Z,-4.01
2022-12-09T21:54:02.181Z,-4.20
2022-12-09T21:56:31.757Z,-4.43
2022-12-09T21:59:00.244Z,-4.04
2022-12-09T22:01:30.955Z,-4.30
2022-12-09T22:04:00.312Z,-4.58
2022-12-09T22:06:29.716Z,-4.47
2022-12-09T22:08:59.999Z,-4.70
2022-12-09T22:11:32.310Z,-4.79
2022-12-09T22:14:01.513Z,-4.73
2022-12-09T22:16:32.602Z,-4.64
2022-12-09T22:19:01.642Z,-4.44
2022-12-09T22:21:30.693Z,-4.37
2022-12-09T22:24:04.234Z,-4.64
2022-12-09T22:26:32.504Z,-4.63
2022-12-09T22:29:01.848Z,-4.58
2022-12-09T22:31:32.443Z,-4.75
2022-12-09T22:34:03.260Z,-4.80
2022-12-09T22:36:31.625Z,-4.49
2022-12-09T22:38:59.078Z,-4.54
2022-12-09T22:41:28.472Z,-4.79
2022-12-09T22:43:56.683Z,-4.61
2022-12-09T22:46:27.890Z,-4.49
2022-12-09T22:48:57.729Z,-4.57
2022-12-09T22:51:27.991Z,-4.81
2022-12-09T22:53:57.562Z,-4.74
2022-12-09T22:56:26.017Z,-5.00
2022-12-09T22:58:53.702Z,-4.97
2022-12-09T23:01:24.541Z,-4.91
2022-12-09T23:03:52.533Z,-5.03
2022-12-09T23:06:20.094Z,-4.60
2022-12-09T23:08:47.827Z,-4.62
2022-12-09T23:11:18.191Z,-4.94
2022-12-09T23:13:46.469Z,-4.58
2022-12-09T23:16:19.904Z,-4.63
2022-12-09T23:18:48.074Z,-4.82
2022-12-09T23:21:19.635Z,-4.83
2022-12-09T23:23:47.650Z,-4.84
2022-12-09T23:26:19.284Z,-4.97
2022-12-09T23:28:49.271Z,-5.08
2022-12-09T23:31:18.987Z,-5.01
2022-12-09T23:33:47.860Z,-4.96
2022-12-09T23:36:20.880Z,-4.81
2022-12-09T23:38:49.964Z,-4.86
2022-12-09T23:41:19.676Z,-4.76
2022-12-09T23:43:49.066Z,-4.88
2022-12-09T23:46:19.765Z,-4.85
2022-12-09T23:48:49.049Z,-5.09
2022-12-09T23:51:18.318Z,-4.82
2022-12-09T23:53:47.494Z,-5.12
2022-12-09T23:56:15.844Z,-5.21
2022-12-09T23:58:43.527Z,-5.37
